Oak Park, IL (60303)

9:19 PM CST on November 23, 2014 (GMT -0600)
Oak Park, IL | Change Station
CLOSE
Current Station
Personal Weather Station
Location: Oak Park, IL
Elevation: 617 ft
Nearby Weather Stations

Elev 617 ft 41.87 °N, 87.79 °W | Updated 3 seconds ago

Rain
Rain
53.2 °F
Feels Like 53.2 °F
N
0.0
Wind Variable Wind from SSE
Gusts 2.0 mph

Today
High -- | Low -- °F
--% Chance of Precip.
Yesterday
High -- | Low -- °F
Precip. -- in
6:50 AM 4:24 PM
Waxing Crescent, 3% visible
Pressure 29.21 in
Visibility 6.0 miles
Clouds Overcast 600 ft
Dew Point 51 °F
Humidity 91%
Rainfall 0.45 in
Snow Depth Not available.
UV 0 out of 12
Pollen .10 out of 12
Air Quality Not available.
Flu Activity Not available.
METAR KMDW 240253Z 17004KT 6SM RA BR OVC006 12/11 A2921 RMK AO2 SLP892 P0007 60024 T01170106 56051

More Conditions Fewer Conditions

Pressure 29.21 in
Visibility 6.0 miles
Clouds Overcast 600 ft
Dew Point 51 °F
Humidity 91%
Rainfall 0.45 in
Snow Depth Not available.
UV 0 out of 12
Pollen .10 out of 12
Air Quality Not available.
Flu Activity Not available.
METAR KMDW 240253Z 17004KT 6SM RA BR OVC006 12/11 A2921 RMK AO2 SLP892 P0007 60024 T01170106 56051

More Conditions Fewer Conditions

10-Day Weather Forecast

Almanac

Astronomy

Nov. 23, 2014 Rise Set
Actual Time
Civil Twilight
Nautical Twilight
Astronomical Twilight
Moon
Length of Visible Light
Length of Day
Tomorrow will be .
, % of the Moon is Illuminated

Today's Extremes

State Highs State Lows

Community

WunderPhotos

Upload Photos

1,773,257 photos uploaded!

WunderBlogs® & News

Nearby

Air Quality

  Air Quality AQ Index Pollutant
Not available.

Snow Depth

Station Depth Elevation

Earthquake Activity

City Distance Mag. Time & Date
Minimum magnitude displayed is 2.5.

Coastal Water Temperatures

Place Temperature

Nearby Weather Stations